Member area
Imprimable
Wissant, 08-09/09/2018, FRA - Trail de la Côte d'Opale
List of reports > 24km - Result
Search: Page: [1]
186 Entries
 
Complains are not accepted anymore. Results are final.
PlaceNrLicenceNameAgeNATTeamTimeTkmMoy.ScrCity
1.11337DAEL Michel53FRAUS MARQUETTE1:55:374:50 12.4651
2.10388LEMAIRE Jerome50FRA1:55:544:50 12.4354
3.10714SCHMETZ Bernard54BELRUNNERS BERNEAU1:56:424:52 12.3457
4.10533BOUCAU Philippe50FRA1:56:504:53 12.3359
5.11175JOLIE Stan52BELACKO1:57:304:54 12.2667
6.11659HUYS Urbain58BELACKO1:57:414:55 12.2470
7.11643191214VANDAMME Stéphane52FRALILLE METROPOLE ATHLETISM2:01:345:04 11.85101
8.10468DEPIERRE Jean-Michel51FRAFOULÉES SAINGHINOISES2:01:535:05 11.82103
9.10626BOURDEAU Stephane50FRA2:02:205:06 11.77111
10.11145PIERAERT Guy53BEL2:02:485:07 11.73115
11.11717GAUGUERY Stephane50FRA2:03:115:08 11.69119
12.11609THIRION Jean-François54BELNEUPRÉ AC2:03:165:09 11.68121
13.11167BORSUS Charly55FRALES APÉROS DU MARDI2:05:135:14 11.50137
14.10751SANTY Rudi51BELCOACH RUNNING2:05:135:14 11.50138
15.10265DEWULF Grégory50BELCOACH RUNNING2:05:495:15 11.45148
16.11146SAUTEREAU Franck50FRA2:06:215:16 11.40155
17.10787DEPRINCE Vincent50BELVERTIGO2:06:285:17 11.39157
18.10250DESTOMBES Benoit56FRA2:06:395:17 11.37164
19.11712HOUDMONT Arnaud51BELRUNATTITUDE2:10:095:26 11.06227
20.10957FERY Etienne50BELRAPTOR TEAM2:10:165:26 11.06231
21.11592TURGOT Vincent59FRA2:10:195:26 11.05234
22.11131OBERT Thierry53FRA2:11:145:29 10.97252
23.11291BAUWENS Marcel58BELJC BAUDOUR2:11:565:30 10.92260
24.11013VAN CEUNEBROECK Michel51BELJC DES COLLINES2:14:065:36 10.74297
25.11631DESQUIREZ Gilbert52FRA2:15:175:39 10.64326
26.10371VANOVERSKELDS Domi54BELCOACHRUNNING2:15:185:39 10.64329
27.10041BROUART Jean-Marc57FRAREYDEL2:16:005:40 10.59337
28.11051DELCAMPE Eddy52BEL2:16:115:41 10.57343
29.10769SOGALOW Jean-Marc51FRA2:16:315:42 10.55353
30.11233JAUQUET Daniel53BELJCHSH2:16:375:42 10.54355
31.10480MARTINAGE Lionel52BELPOTOS ROSES2:16:445:42 10.53359
32.115361526159FOURNEAU Thierry54FRA2:17:285:44 10.48375
33.11763FRITZ Alain55FRA2:17:595:45 10.44395
34.10075DEPERNE Christof50FRARUNNERS EN NORD2:18:025:46 10.43398
35.10576WATTIER Jean Christophe50FRA2:18:245:46 10.41407
36.11065VEZIRIAN Thierry53FRA2:18:245:46 10.40408
37.10597LAURENT Alexandre50FRA2:19:075:48 10.35427
38.11567MASSET Bruno54FRAGROUPE EMPLIO2:19:435:50 10.31441
39.11209LAMBERT Guy54BELJIA2:20:035:51 10.28446
40.10219BRUNET François50FRA2:20:055:51 10.28448
41.10094HUS Bernard54FRARUN IN BOUSBECQUE2:20:405:52 10.24462
42.105101979907DUFOUR Christophe53FRACOURIR À ABBEVILLE2:20:465:52 10.23464
43.11708CLERBOUT Marc53FRARC BLENDECQUES2:20:475:52 10.23465
44.10342LECOCQ Alain54FRAEDF2:20:545:53 10.22468
45.11044VOREAUX Christophe54FRACOURIR A MERVILLE2:20:565:53 10.22469
46.11743NEVEJANS Emmanuel50FRACOURIR À MERVILLE2:20:565:53 10.22470
47.10741GRIBOVAL Christian59FRACSFM RUNNING2:20:595:53 10.22472
48.11774BONNEVIE Franck50FRAEUROTUNNEL2:21:295:54 10.18483
49.11481DEBOEVER Francis53BEL2:21:595:55 10.14490
50.10881WATRELOT Sébastien50FRA2:22:265:57 10.11499
51.11472LEDIEU Lauretn55FRA2:22:485:57 10.08505
52.11598ADAMSKI Jean-Michel52FRALFB RUNNING2:23:315:59 10.03521
53.101121389588PODEVIN J.Pierre55FRAACO2:23:526:00 10.01530
54.10429VOGELEER Michel50BELGO RUN2:24:316:02 9.96539
55.10292MISSON Marc57FRA2:25:466:05 9.88571
56.10848BERTRAND Bruno52BEL2:26:066:06 9.86580
57.11281LECLERCQ Michel50BELJCPMF FLV2:26:156:06 9.85586
58.10431CARACINI Marcello56ITAJIA2:26:316:07 9.83593
59.11043D'IGNAZIO Olivier53FRAJC BAUDOUR2:26:446:07 9.81603
60.10210MACHERAC Laurent54FRACEFM2:27:176:09 9.78620
61.11474BOUQUET Philippe55FRA2:27:366:09 9.76630
62.10924ROUSSEAU Jean-Marc54BELLES APÉROS DU MARDI2:27:436:10 9.75633
63.10161VAAST Yvan55FRA2:28:096:11 9.72643
64.11699FEY Philippe50FRA2:28:106:11 9.72645
65.10242COUROUBLE Remi54FRALES Z'AMIS COUREURS DE LA2:28:276:12 9.70651
66.11040BERTHE Jean Pierre53FRA2:29:086:13 9.66668
67.11374BODDAERT Pierre55FRAPHILIPPIDÈS CLUB TEMPLEUV2:29:106:13 9.65669
68.10232MOREELS Pierre52FRAREYDEL2:30:516:18 9.55708
69.10920THYS Luc56BELACKO2:31:196:19 9.52715
70.10203DUFAUX Raphaël51BELJCPMFFLV2:31:436:20 9.49726
71.11139MESTDAGH Pascal52BELJCL2:32:146:21 9.46733
72.10601MARINELLI Gaetano58ITABOUFFIOLS2:32:326:22 9.44740
73.11176COUCKE Olivier50FRA2:32:416:22 9.43744
74.10035VANDEWEGHE Jean-Luc52FRAPICOLORUNS2:32:426:22 9.43745
75.10551DOUILLET Ronald54BEL2:33:066:23 9.41758
76.10635SERAFIN Eric52FRALA FOULEE PONT A MARCQUOI2:33:106:23 9.40761
77.10836KODER Franck53FRAFOULÉE PONTAMARCQUOISE2:33:126:23 9.40764
78.11365DE BIOURGE Renaud50FRA2:33:166:24 9.40769
79.10523FOUTERET Philippe52FRAFOULÉES SAINGHINOISES2:33:546:25 9.36782
80.10467DESCAMPS Pierre51FRA2:34:166:26 9.34790
81.11603VANDERSTAPPEN Gaetan57BELACKO2:34:366:27 9.32798
82.10629VIENNE Christophe53FRATEAM TRAIL AUDOMAROIS2:35:386:30 9.25817
83.10096VOLANT Roger52FRADREAMRUN2:35:576:30 9.23825
84.10287BAIVERLIN Luc52BEL2:36:176:31 9.21831
85.11417ZBIERSKI Christophe51FRA2:36:466:32 9.19845
86.11742PANDARD Pascal55FRAUSEE2:36:486:32 9.18846
87.11231DANHIER Christophe51BELLES POTOS ROSES2:37:046:33 9.17852
88.10889VERCAUTEREN Bertrand55BEL2:37:126:33 9.16853
89.11411GROBELNY Gerry56FRA2:37:176:34 9.16854
90.10104SINNO Paul54FRAASTCAF2:37:316:34 9.14859
91.11606BORDET Thierry54FRA2:37:346:34 9.14860
92.10520DARDENNE Philippe56FRA2:37:376:35 9.14863
93.10373A73858C0130028MV4FRALE MADEC Dominique56FRAISSY TRIATHLON2:37:456:35 9.13865
94.10657A73790C0130028MV4FRAMOUILLET Franck56FRAISSY2:37:466:35 9.13866
95.10503SOBCZAK Herve52FRA2:37:476:35 9.13867
96.11602ELAERTS Benoit52FRAPOTOS ROSES2:38:056:36 9.11875
97.11492LEVRAT Antoine54FRA2:38:116:36 9.10876
98.10872BARON Joel55FRACOURIR À OBIES2:38:426:37 9.07886
99.10884DACQUIN Fabrice50FRA2:38:526:38 9.06889
100.10740MABILLE Joel51BELJCHSH2:39:386:40 9.02904
101.10204LEFEVRE Gérard52FRA2:39:576:40 9.00911
102.10466CATTEAU Vincent53FRA2:40:156:41 8.99918
103.11266BRICHARD Jean-Yves50BEL2:40:296:42 8.97923
104.11469COPENS Benoit54BELPOTOROS2:40:406:42 8.96930
105.10032BRYSSE Patrick58FRAJEUNESSE CAPPELLOISE2:40:476:42 8.96934
106.11641LEURETTE Marc-Antoine50FRA2:41:196:44 8.93943
107.10005DAVID Sylvain59FRA2:41:496:45 8.90951
108.10983LASLAZ Pierre58FRA2:41:506:45 8.90953
109.10372DUPONCHEEL Jean Claude50FRA2:41:516:45 8.90956
110.11026DUMOULIN Mathieu52FRA2:41:586:45 8.89962
111.11688PETIT Arnaud58FRARIB2:42:176:46 8.87968
112.10120DUQUENOY Hugo50FRA2:42:186:46 8.87969
113.11370JUSSERET Jean-Pol57BELRUNNERS DEJANTES2:42:346:47 8.86978
114.10421CASTERMAN Thierry54BEL2:42:566:48 8.84984
115.107791708461VALLERAND Pascal53FRACOURIR A BERSEE2:43:026:48 8.83985
116.11380LOEUIL Christophe51FRA2:43:236:49 8.81988
117.11678PTAK Dominique50BEL2:44:036:51 8.781013
118.10114HEROUART Stéphane56FRA2:44:156:51 8.771019
119.11711BELLAREDJ Philippe51FRASPORT NATURE DOMARTOIS2:44:456:52 8.741032
120.114891263709DELIERS Patrice51FRAARTOIS ATHLETISME2:45:046:53 8.721037
121.10767JAUMOTTE Benoit50BEL2:46:146:56 8.661044
122.10567BOHEMS Andre55BELACCROS 5 CLOCHERS TOURNAI2:46:526:58 8.631049
122.10273SALOME Michel55FRAACCRO 5 CLOCHERS TOURNAI 2:46:526:58 8.631049
124.11227DESLEE Eric56BELRUNNING SAFE2:46:526:58 8.631051
125.11448HOUZIAUX Richard58FRA2:47:156:59 8.611058
126.11578PORREYE William59FRAH2R2:47:447:00 8.591064
127.11579RINGOT Christophe53FRAH2R2:47:477:00 8.581065
128.11008LESNIAK Eric55FRALES TRAILS LENTS2:48:137:01 8.561076
129.10529GEERAERTS Jos58BELMYSTERE2:48:277:02 8.551083
130.10656ADANS Alain56BEL2:48:277:02 8.551085
131.11720A08375C0190129MV4FRATALON Jean56FRATRIATHLON CLUB BOULONNAIS2:48:337:02 8.541088
132.10809RYCKEBOSCH Ludwig55BELB BÊTES DE COURSE2:48:417:02 8.541090
133.11321FEUTRY Olivier50FRA2:49:497:05 8.481109
134.11594FIÈRE Rémy57FRA2:50:107:06 8.461121
135.11596LANDRE Philippe55FRA2:50:117:06 8.461125
136.10649BEHAGUE Herve59FRAPHILIPPIDES CLUB TEMPLEUV2:52:077:11 8.371143
137.111331678059STOZICKY Yves55FRAPLANÉTE RUNNING2:52:327:12 8.351149
138.11135ADONEL Hervé54FRA2:52:597:13 8.321158
139.10011BAYART Thierry55FRAJOG ASSAD RIO TINTO2:53:037:13 8.321160
140.11577T303449FOSSET Frederic51FRAPASS RUNNING2:53:187:14 8.311165
141.11658CLOSE Patrick51BEL2:53:197:14 8.311166
142.11661VERWRE Bernard52BEL2:53:197:14 8.311167
143.11591PERALTA Jean François50FRATEAM CHOUCHOU2:53:237:14 8.311168
144.11191TENRET Hugues55FRAJCHSH2:53:487:15 8.291170
145.10991RAINSARD Alexandre52FRATEAM FOLPERDIRX2:54:337:17 8.251178
146.11312DUFAY Pascal56BELJCBLANDAIN2:54:547:18 8.231180
147.11694MOMONT Jean-Paul54FRA2:55:107:18 8.221187
148.10861MOISE Patrick58FRARC NAMUR BELGIQUE2:55:417:20 8.201197
149.116511848333MIGNET Luc50FRASERIAL TRAILEUR2:56:297:22 8.161211
150.10776BERHAULT Didier55FRA2:56:417:22 8.151215
151.10690DESFROMONT Vincent52FRATRIGT2:56:437:22 8.151216
152.11091VANHUFFEL Renaud50FRA2:57:397:25 8.111229
153.11295COGET Vincent51FRA2:57:407:25 8.111233
154.11453CLAEYS Philippe57BEL2:57:447:25 8.101236
155.10832VITEL Frederic55FRA2:57:527:25 8.101239
156.11468POTIER Alain50FRALA FOULÉE PONT À MARCQUOI2:59:167:29 8.031262
157.10549DELCAMBRE Christian52FRALA FOULÉE PONT À MARCQUOI2:59:177:29 8.031264
158.11369EVAIN Philippe51BEL2:59:227:29 8.031268
159.11071JOVENEAU Bruno54BELJC BLANDAIN2:59:277:29 8.021270
160.11151ROY Christian59BEL2:59:377:30 8.021271
161.11349LEGRU Jean-Pascal59FRAJC BAUDOUR3:00:377:32 7.971288
162.10651MORESCHI Pierre-Louis50BELJOGGING CLUB BAUDOUR3:00:437:32 7.971292
163.10073GEVENOIS Frank56FRAJCBAUDOUR3:00:487:32 7.961297
164.10418BONFIGLIO Giacinto54ITAJCPMFL3:03:317:39 7.851319
165.10015GILLEMAN Pierre52FRA3:03:357:39 7.841321
166.10061PETIT Frederic57FRATENNIS CLUB DE BOULOGNE S3:04:037:41 7.821330
167.10572SERLIPPENS Francis57BELJCPMF LESSINES3:04:517:43 7.791345
168.11361JUCHTMANS Pierre57BELETC3:04:527:43 7.791347
169.10570MARTENS Patrick56BEL3:07:417:50 7.671382
170.10397SWAENEPOEL Jean-Paul52FRA3:08:377:52 7.641389
171.10770POTTIER Alain51FRALES TRAIL LENTS3:08:377:52 7.631390
172.11099GUISSET Emmanuel53FRA3:10:277:57 7.561405
173.10885COUTELARD Laurent50FRAPHILLIPIDES TEMPLEUVE3:13:498:05 7.431420
174.10853DEMOUSTIER Marc59BELJC BAUDOUR3:13:598:05 7.421422
175.11012HERLIN Fabrice51BELJC DES COLLINES3:16:598:13 7.311446
176.11030DEUDON Guy52FRAGANG DE POUILLEUX3:18:208:16 7.261455
177.10830COLLETTE Olivier53FRAFER3:22:248:26 7.111466
178.10807HERNANDEZ Pablo50FRA3:24:258:32 7.041468
179.10715ROLLAND Philippe50BELRAINBOW MULTISPORT TEAM3:26:508:38 6.961474
180.11085BAGUET Patrice54BELJCPMFL3:29:358:44 6.871487
181.11001D’HULSTER Jean -Pierre57BELJC DES COLLINES3:44:089:21 6.421493
182.115581073420CHEMIN Bernard55FRAUSVA4:15:0310:38 5.651499
DSQ10735WOTRON Pascal51BEL1:35:12
DSQ11527BONNAUD Cyril50FRA1:54:22
DNF10663SIZAIRE Alain51FRA
DNF10981TORRES Pasquale54BELBOUFFIOLS
DNF: did not finish; DSQ: disqualified; Speed in km/h
Page: [1]